Time;durP1;ratioP1;P1;durP2;ratioP2;P2;SDS_P1;SDS_P2;PMS_P1;PMS_P2;Temp;Humidity;BMP_temperature;BMP_pressure;BME280_temperature;BME280_humidity;BME280_pressure;Samples;Min_cycle;Max_cycle;Signal;HPM_P1;HPM_P2
2022/01/14 00:00:52;;;;;;;7.27;4.00;;;;;;;0.97;100.00;102448.72;5053041;28;20182;-75
2022/01/14 00:03:17;;;;;;;4.53;4.13;;;;;;;0.94;100.00;102454.50;5051537;28;20624;-73
2022/01/14 00:05:43;;;;;;;3.37;3.13;;;;;;;0.99;100.00;102457.41;5052782;28;20623;-74
2022/01/14 00:08:08;;;;;;;5.73;5.33;;;;;;;0.99;100.00;102455.56;5052799;28;20178;-74
2022/01/14 00:10:35;;;;;;;10.77;6.13;;;;;;;1.00;100.00;102453.69;5052782;28;20179;-74
2022/01/14 00:13:09;;;;;;;7.43;6.73;;;;;;;1.04;100.00;102463.06;5052796;28;20171;-74
2022/01/14 00:15:35;;;;;;;2.43;2.20;;;;;;;1.06;100.00;102456.44;5052599;28;20408;-74
2022/01/14 00:18:01;;;;;;;9.63;6.53;;;;;;;1.07;100.00;102459.97;5051379;28;20426;-74
2022/01/14 00:20:27;;;;;;;3.20;2.93;;;;;;;1.07;100.00;102455.41;5052539;28;20206;-73
2022/01/14 00:22:52;;;;;;;5.17;4.77;;;;;;;1.09;100.00;102455.22;5067740;28;20449;-74
2022/01/14 00:33:41;;;;;;;7.10;3.80;;;;;;;1.18;100.00;102452.16;5039878;28;20418;-74
2022/01/14 00:36:06;;;;;;;14.10;5.60;;;;;;;1.18;100.00;102446.78;5050808;28;20517;-74
2022/01/14 00:38:31;;;;;;;12.30;3.97;;;;;;;1.19;100.00;102437.69;5067600;28;20178;-74
2022/01/14 00:40:57;;;;;;;5.13;4.73;;;;;;;1.19;100.00;102445.75;5052039;28;20184;-71
2022/01/14 00:43:22;;;;;;;5.17;3.70;;;;;;;1.16;100.00;102451.53;5052037;28;20171;-73
2022/01/14 00:45:48;;;;;;;4.00;3.63;;;;;;;1.19;100.00;102440.38;5051892;28;20648;-74
2022/01/14 00:48:14;;;;;;;12.03;4.83;;;;;;;1.26;100.00;102450.31;5052048;28;20175;-73
2022/01/14 00:50:44;;;;;;;14.70;8.63;;;;;;;1.30;100.00;102443.50;5051907;28;20168;-74
2022/01/14 00:53:09;;;;;;;6.10;5.67;;;;;;;1.33;100.00;102437.72;5050713;28;20171;-74
2022/01/14 00:55:58;;;;;;;2.43;2.33;;;;;;;1.33;100.00;102440.44;5051668;28;20886;-71
2022/01/14 01:01:24;;;;;;;9.80;5.90;;;;;;;1.35;100.00;102436.50;5028295;28;20410;-74
2022/01/14 01:03:49;;;;;;;4.03;3.77;;;;;;;1.39;100.00;102440.44;5041394;28;20454;-73
2022/01/14 01:06:15;;;;;;;10.10;6.20;;;;;;;1.45;100.00;102438.81;5051468;28;20175;-74
2022/01/14 01:08:42;;;;;;;12.30;7.00;;;;;;;1.46;100.00;102429.72;5050096;28;20167;-73
2022/01/14 01:11:10;;;;;;;12.07;6.20;;;;;;;1.44;100.00;102427.19;5051427;28;20171;-74
2022/01/14 01:13:41;;;;;;;8.67;5.73;;;;;;;1.45;100.00;102425.34;5051428;28;20426;-74
2022/01/14 01:16:06;;;;;;;7.40;4.53;;;;;;;1.48;100.00;102430.34;5051341;28;20509;-74
2022/01/14 01:18:32;;;;;;;5.60;4.30;;;;;;;1.50;100.00;102436.34;5051384;28;20505;-74
2022/01/14 01:20:59;;;;;;;5.87;3.57;;;;;;;1.51;100.00;102440.69;5051798;28;20210;-74
2022/01/14 01:23:25;;;;;;;10.67;4.57;;;;;;;1.52;100.00;102431.59;5050904;28;20181;-74
2022/01/14 01:25:57;;;;;;;5.97;5.07;;;;;;;1.51;100.00;102434.47;5051114;28;20902;-73
2022/01/14 01:28:23;;;;;;;9.10;4.07;;;;;;;1.52;100.00;102430.75;5051236;28;20167;-74
2022/01/14 01:33:13;;;;;;;6.60;5.23;;;;;;;1.56;100.00;102440.91;5071379;28;20175;-74
2022/01/14 01:35:39;;;;;;;8.70;7.30;;;;;;;1.59;100.00;102445.06;5070888;28;20178;-74
2022/01/14 01:38:04;;;;;;;8.80;5.60;;;;;;;1.61;100.00;102443.03;5070959;28;20576;-74
2022/01/14 01:40:30;;;;;;;7.37;5.40;;;;;;;1.62;100.00;102439.28;5071067;28;20174;-74
2022/01/14 01:42:57;;;;;;;8.60;7.77;;;;;;;1.62;100.00;102437.44;5071242;28;20173;-74
2022/01/14 01:45:25;;;;;;;20.17;8.33;;;;;;;1.62;100.00;102436.59;5070735;28;20198;-73
2022/01/14 01:47:54;;;;;;;6.73;5.93;;;;;;;1.62;100.00;102442.81;5070824;28;20421;-74
2022/01/14 01:50:23;;;;;;;4.20;3.70;;;;;;;1.63;100.00;102435.56;5069464;28;20412;-74
2022/01/14 01:52:48;;;;;;;8.67;5.00;;;;;;;1.63;100.00;102428.31;5069492;28;20972;-73
2022/01/14 01:55:15;;;;;;;20.93;7.73;;;;;;;1.64;100.00;102435.34;5070707;28;20540;-74
2022/01/14 01:57:44;;;;;;;6.17;3.87;;;;;;;1.63;100.00;102431.00;5069465;28;20388;-73
2022/01/14 02:00:12;;;;;;;11.30;10.10;;;;;;;1.66;100.00;102429.75;5070651;28;20423;-74
2022/01/14 02:02:38;;;;;;;11.03;7.43;;;;;;;1.62;100.00;102418.56;5070890;28;20469;-74
2022/01/14 02:05:04;;;;;;;5.93;5.33;;;;;;;1.64;100.00;102426.44;5070403;28;20950;-73
2022/01/14 02:07:33;;;;;;;14.43;5.53;;;;;;;1.63;100.00;102428.31;5069436;28;20281;-74
2022/01/14 02:09:59;;;;;;;5.93;4.33;;;;;;;1.66;100.00;102435.16;5069533;28;20513;-74
2022/01/14 02:12:33;;;;;;;3.20;3.00;;;;;;;1.65;100.00;102438.88;5069123;28;20528;-74
2022/01/14 02:15:12;;;;;;;7.97;6.63;;;;;;;1.63;100.00;102419.41;5070671;28;20805;-74
2022/01/14 02:23:07;;;;;;;5.23;4.93;;;;;;;1.62;100.00;102418.56;5070631;28;20472;-74
2022/01/14 02:25:33;;;;;;;6.93;5.10;;;;;;;1.65;100.00;102414.63;5070268;28;20490;-73
2022/01/14 02:28:08;;;;;;;6.60;4.90;;;;;;;1.68;100.00;102417.75;5070409;28;20897;-74
2022/01/14 02:30:36;;;;;;;4.43;3.53;;;;;;;1.68;100.00;102425.00;5069000;28;20185;-74
2022/01/14 02:33:02;;;;;;;5.50;4.20;;;;;;;1.68;100.00;102415.03;5070009;28;20417;-74
2022/01/14 02:35:28;;;;;;;4.97;3.87;;;;;;;1.67;100.00;102421.47;5070159;28;20501;-74
2022/01/14 02:37:53;;;;;;;11.83;8.23;;;;;;;1.65;100.00;102415.47;5070311;28;20429;-73
2022/01/14 02:40:19;;;;;;;6.47;5.87;;;;;;;1.64;100.00;102413.81;5068965;28;20171;-73
2022/01/14 02:42:48;;;;;;;10.17;7.10;;;;;;;1.64;100.00;102405.72;5070282;28;20223;-74
2022/01/14 02:45:13;;;;;;;7.50;6.83;;;;;;;1.65;100.00;102404.69;5068768;28;20468;-74
2022/01/14 02:47:38;;;;;;;12.83;6.20;;;;;;;1.65;100.00;102390.38;5070490;28;20413;-74
2022/01/14 02:50:08;;;;;;;9.83;7.20;;;;;;;1.66;100.00;102409.03;5068815;28;20201;-73
2022/01/14 02:52:43;;;;;;;12.13;5.13;;;;;;;1.68;100.00;102395.34;5070188;28;20558;-74
2022/01/14 02:55:18;;;;;;;8.43;5.73;;;;;;;1.67;100.00;102381.06;5070047;28;20162;-73
2022/01/14 02:57:46;;;;;;;4.10;3.47;;;;;;;1.67;100.00;102397.22;5068996;28;20829;-73
2022/01/14 03:00:13;;;;;;;5.77;5.27;;;;;;;1.67;100.00;102383.75;5068763;28;20810;-74
2022/01/14 03:02:44;;;;;;;5.63;5.10;;;;;;;1.67;100.00;102375.66;5068740;28;20428;-72
2022/01/14 03:05:10;;;;;;;14.03;6.33;;;;;;;1.68;100.00;102369.25;5069913;28;20484;-74
2022/01/14 03:07:37;;;;;;;10.97;5.07;;;;;;;1.70;100.00;102363.66;5070006;28;21196;-73
2022/01/14 03:10:03;;;;;;;6.23;5.73;;;;;;;1.70;100.00;102369.88;5069987;28;20628;-74
2022/01/14 03:12:28;;;;;;;9.37;5.50;;;;;;;1.71;100.00;102358.06;5069855;28;20423;-74
2022/01/14 03:14:54;;;;;;;6.07;3.93;;;;;;;1.72;100.00;102365.09;5069952;28;20769;-74
2022/01/14 03:17:19;;;;;;;4.43;3.17;;;;;;;1.74;100.00;102363.06;5068618;28;20179;-74
2022/01/14 03:19:46;;;;;;;6.37;3.97;;;;;;;1.75;100.00;102369.28;5069922;28;20529;-74
2022/01/14 03:22:20;;;;;;;4.80;3.27;;;;;;;1.77;100.00;102367.19;5070022;28;20241;-74
2022/01/14 03:27:12;;;;;;;13.70;3.80;;;;;;;1.79;100.00;102357.88;5073462;28;20514;-74
2022/01/14 03:29:37;;;;;;;9.93;5.97;;;;;;;1.80;100.00;102361.41;5073357;28;20186;-74
2022/01/14 03:32:04;;;;;;;10.53;6.93;;;;;;;1.81;100.00;102364.91;5073232;28;20183;-74
2022/01/14 03:34:30;;;;;;;15.97;7.73;;;;;;;1.81;100.00;102356.84;5073148;28;20175;-74
2022/01/14 03:36:56;;;;;;;6.07;4.07;;;;;;;1.77;100.00;102357.25;5073488;28;20412;-73
2022/01/14 03:39:21;;;;;;;5.87;4.60;;;;;;;1.73;100.00;102342.50;5071845;28;20429;-74
2022/01/14 03:41:47;;;;;;;12.97;8.77;;;;;;;1.72;100.00;102342.72;5071982;28;20174;-74
2022/01/14 03:44:13;;;;;;;3.17;2.97;;;;;;;1.73;100.00;102352.47;5071866;28;20255;-74
2022/01/14 03:46:38;;;;;;;6.67;3.67;;;;;;;1.75;100.00;102347.72;5072700;28;20626;-73
2022/01/14 03:49:03;;;;;;;6.23;3.93;;;;;;;1.71;100.00;102354.53;5072425;28;20171;-74
2022/01/14 03:51:29;;;;;;;8.33;5.70;;;;;;;1.69;100.00;102354.75;5073139;28;20197;-74
2022/01/14 03:53:55;;;;;;;5.57;4.63;;;;;;;1.70;100.00;102351.00;5073205;28;20183;-74
2022/01/14 03:56:23;;;;;;;23.00;4.57;;;;;;;1.70;100.00;102358.25;5072815;28;20198;-74
2022/01/14 03:58:49;;;;;;;11.20;6.83;;;;;;;1.69;100.00;102346.66;5071612;28;20432;-73
2022/01/14 04:01:14;;;;;;;9.13;6.37;;;;;;;1.69;100.00;102341.28;5071469;28;20425;-73
2022/01/14 04:03:41;;;;;;;9.13;5.80;;;;;;;1.68;100.00;102339.63;5071266;28;20456;-74
2022/01/14 04:06:07;;;;;;;4.07;3.10;;;;;;;1.68;100.00;102341.47;5072335;28;20236;-74
2022/01/14 04:08:33;;;;;;;4.90;4.50;;;;;;;1.67;100.00;102345.22;5071356;28;20429;-74
2022/01/14 04:11:01;;;;;;;3.93;3.27;;;;;;;1.67;100.00;102339.81;5072549;28;20284;-74
2022/01/14 04:13:45;;;;;;;3.67;3.07;;;;;;;1.69;100.00;102343.13;5072466;28;20175;-76
2022/01/14 04:16:11;;;;;;;9.07;5.03;;;;;;;1.72;100.00;102338.16;5072187;28;20808;-74
2022/01/14 04:18:37;;;;;;;6.93;4.10;;;;;;;1.71;100.00;102335.66;5071276;28;20486;-74
2022/01/14 04:21:02;;;;;;;5.93;5.37;;;;;;;1.69;100.00;102341.28;5072370;28;20213;-73
2022/01/14 04:23:28;;;;;;;9.23;7.27;;;;;;;1.68;100.00;102336.91;5070698;28;20718;-74
2022/01/14 04:25:56;;;;;;;6.07;5.63;;;;;;;1.69;100.00;102330.50;5072059;28;20662;-74
2022/01/14 04:28:27;;;;;;;11.00;3.63;;;;;;;1.71;100.00;102331.09;5070722;28;20460;-74
2022/01/14 04:30:54;;;;;;;4.13;3.60;;;;;;;1.70;100.00;102332.16;5072140;28;20232;-74
2022/01/14 04:33:23;;;;;;;12.50;6.53;;;;;;;1.71;100.00;102331.09;5072210;28;20467;-73
2022/01/14 04:35:49;;;;;;;12.20;6.20;;;;;;;1.71;100.00;102322.19;5071667;28;20503;-73
2022/01/14 04:38:14;;;;;;;7.30;3.40;;;;;;;1.70;100.00;102317.84;5070579;28;20505;-74
2022/01/14 04:40:40;;;;;;;8.20;3.53;;;;;;;1.71;100.00;102304.16;5068056;28;20631;-74
2022/01/14 04:43:06;;;;;;;4.37;3.97;;;;;;;1.74;100.00;102317.25;5083296;28;20194;-73
2022/01/14 04:48:00;;;;;;;5.27;4.87;;;;;;;1.73;100.00;102302.09;5071916;28;20421;-73
2022/01/14 04:50:26;;;;;;;3.47;3.27;;;;;;;1.72;100.00;102288.84;5071703;28;20417;-74
2022/01/14 04:52:52;;;;;;;4.63;4.17;;;;;;;1.74;100.00;102300.25;5070383;28;20944;-74
2022/01/14 04:55:20;;;;;;;10.80;5.77;;;;;;;1.76;100.00;102296.31;5070239;28;20187;-74
2022/01/14 04:57:45;;;;;;;4.43;3.00;;;;;;;1.75;100.00;102294.66;5072131;28;20483;-74
2022/01/14 05:00:14;;;;;;;3.93;3.10;;;;;;;1.75;100.00;102283.88;5071702;28;20417;-73
2022/01/14 05:02:40;;;;;;;20.30;7.80;;;;;;;1.75;100.00;102278.50;5070275;28;20179;-73
2022/01/14 05:05:07;;;;;;;4.20;3.90;;;;;;;1.76;100.00;102280.16;5071572;28;20468;-71
2022/01/14 05:07:33;;;;;;;6.73;3.03;;;;;;;1.79;100.00;102270.81;5071513;28;20259;-73
2022/01/14 05:12:24;;;;;;;8.57;4.60;;;;;;;1.82;100.00;102272.25;5071729;28;20433;-74
2022/01/14 05:14:49;;;;;;;11.17;5.57;;;;;;;1.82;100.00;102274.97;5069838;28;20227;-74
2022/01/14 05:17:14;;;;;;;5.40;4.90;;;;;;;1.85;100.00;102255.66;5071333;28;20686;-74
2022/01/14 05:19:40;;;;;;;5.67;5.27;;;;;;;1.86;100.00;102252.75;5071250;28;20181;-73
2022/01/14 05:22:05;;;;;;;2.33;2.00;;;;;;;1.86;100.00;102247.38;5071233;28;20209;-74
2022/01/14 05:24:31;;;;;;;4.77;4.47;;;;;;;1.86;100.00;102250.06;5071050;28;20217;-74
2022/01/14 05:26:56;;;;;;;6.10;3.30;;;;;;;1.87;100.00;102267.91;5069693;28;20708;-74
2022/01/14 05:29:21;;;;;;;1.93;1.83;;;;;;;1.88;100.00;102264.19;5069523;28;20194;-74
2022/01/14 05:32:00;;;;;;;9.83;5.53;;;;;;;1.89;100.00;102256.94;5071025;28;20502;-74
2022/01/14 05:34:26;;;;;;;8.93;5.23;;;;;;;1.87;100.00;102259.81;5071060;28;20216;-74
2022/01/14 05:36:51;;;;;;;4.67;4.27;;;;;;;1.89;100.00;102254.25;5070744;28;20417;-74
2022/01/14 05:39:20;;;;;;;12.03;6.87;;;;;;;1.91;100.00;102246.78;5070966;28;20170;-74
2022/01/14 05:41:45;;;;;;;6.67;3.83;;;;;;;1.90;100.00;102237.03;5070795;28;20170;-74
2022/01/14 05:44:11;;;;;;;2.90;2.70;;;;;;;1.91;100.00;102246.78;5070849;28;20895;-73
2022/01/14 05:46:36;;;;;;;13.10;8.53;;;;;;;1.88;100.00;102253.41;5070220;28;20230;-74
2022/01/14 05:49:02;;;;;;;15.83;9.20;;;;;;;1.85;100.00;102229.56;5069443;28;20178;-74
2022/01/14 05:51:27;;;;;;;4.50;2.73;;;;;;;1.84;100.00;102241.38;5070869;28;20179;-71
2022/01/14 05:53:53;;;;;;;7.93;7.10;;;;;;;1.81;100.00;102224.78;5070706;28;20187;-71
2022/01/14 05:56:18;;;;;;;4.33;4.10;;;;;;;1.82;100.00;102231.84;5070417;28;20185;-71
2022/01/14 05:58:43;;;;;;;6.33;4.80;;;;;;;1.83;100.00;102236.19;5070580;28;20174;-71
2022/01/14 06:01:09;;;;;;;9.37;8.03;;;;;;;1.82;100.00;102231.84;5070614;28;20178;-71
2022/01/14 06:03:34;;;;;;;9.90;5.13;;;;;;;1.81;100.00;102244.47;5070450;28;20581;-72
2022/01/14 06:06:00;;;;;;;1.87;1.73;;;;;;;1.81;100.00;102240.97;5069079;28;20202;-73
2022/01/14 06:08:25;;;;;;;16.63;5.70;;;;;;;1.81;100.00;102247.19;5069050;28;20722;-73
2022/01/14 06:10:50;;;;;;;1.43;1.40;;;;;;;1.85;100.00;102236.81;5070576;28;20166;-73
2022/01/14 06:13:16;;;;;;;9.53;7.30;;;;;;;1.85;100.00;102232.25;5070327;28;20167;-74
2022/01/14 06:15:41;;;;;;;10.73;6.57;;;;;;;1.84;100.00;102230.59;5070724;28;20544;-74
2022/01/14 06:18:06;;;;;;;7.83;6.07;;;;;;;1.85;100.00;102216.06;5070761;28;20530;-74
2022/01/14 06:20:32;;;;;;;3.13;2.83;;;;;;;1.84;100.00;102206.34;5069162;28;20538;-73
2022/01/14 06:22:57;;;;;;;4.37;4.00;;;;;;;1.84;100.00;102197.44;5069080;28;20194;-74
2022/01/14 06:25:22;;;;;;;17.77;10.60;;;;;;;1.83;100.00;102203.84;5070153;28;20260;-73
2022/01/14 06:27:48;;;;;;;10.40;5.00;;;;;;;1.84;100.00;102200.94;5071059;28;20250;-74
2022/01/14 06:30:14;;;;;;;15.07;9.77;;;;;;;1.85;100.00;102197.22;5070778;28;20162;-74
2022/01/14 06:32:42;;;;;;;5.97;5.10;;;;;;;1.87;100.00;102194.31;5070668;28;20419;-74
2022/01/14 06:35:13;;;;;;;12.37;4.63;;;;;;;1.87;100.00;102199.69;5069168;28;20193;-73
2022/01/14 06:37:39;;;;;;;14.33;10.50;;;;;;;1.86;100.00;102196.16;5069325;28;20413;-74
2022/01/14 06:40:06;;;;;;;6.60;3.43;;;;;;;1.87;100.00;102207.78;5069511;28;20466;-73
2022/01/14 06:42:31;;;;;;;4.63;3.60;;;;;;;1.89;100.00;102221.91;5070678;28;20504;-74
2022/01/14 06:44:56;;;;;;;8.10;4.57;;;;;;;1.88;100.00;102214.81;5072502;28;21078;-73
2022/01/14 06:47:23;;;;;;;1.77;1.67;;;;;;;1.89;100.00;102228.13;5078217;28;20181;-74
2022/01/14 06:49:49;;;;;;;4.97;4.60;;;;;;;1.88;100.00;102225.59;5081286;28;20175;-73
2022/01/14 06:52:14;;;;;;;12.20;4.70;;;;;;;1.89;100.00;102227.28;5071919;28;20483;-73
2022/01/14 06:54:40;;;;;;;21.40;9.60;;;;;;;1.90;100.00;102220.84;5070660;28;20862;-74
2022/01/14 06:57:06;;;;;;;18.60;5.27;;;;;;;1.89;100.00;102229.97;5068986;28;20251;-74
2022/01/14 06:59:31;;;;;;;11.40;5.27;;;;;;;1.91;100.00;102244.06;5073085;28;20167;-74
2022/01/14 07:01:57;;;;;;;10.27;4.93;;;;;;;1.96;100.00;102255.88;5074178;28;20175;-73
2022/01/14 07:04:22;;;;;;;4.00;3.70;;;;;;;2.01;100.00;102263.31;5072555;28;20237;-74
2022/01/14 07:06:47;;;;;;;5.90;4.90;;;;;;;1.99;100.00;102262.69;5072601;28;20183;-74
2022/01/14 07:09:13;;;;;;;9.77;4.10;;;;;;;1.99;100.00;102279.69;5073962;28;20170;-72
2022/01/14 07:11:39;;;;;;;3.27;2.80;;;;;;;2.04;100.00;102287.19;5073951;28;20179;-71
2022/01/14 07:14:05;;;;;;;6.27;4.30;;;;;;;2.09;100.00;102285.50;5074101;28;20182;-71
2022/01/14 07:16:32;;;;;;;4.97;4.00;;;;;;;2.11;100.00;102285.28;5072232;28;20174;-73
2022/01/14 07:18:58;;;;;;;3.27;3.07;;;;;;;2.13;100.00;102280.50;5072546;28;21022;-74
2022/01/14 07:21:23;;;;;;;4.70;4.33;;;;;;;2.17;100.00;102286.31;5073685;28;20424;-77
2022/01/14 07:23:50;;;;;;;11.40;5.27;;;;;;;2.17;100.00;102289.88;5073620;28;20323;-74
2022/01/14 07:26:16;;;;;;;6.67;6.17;;;;;;;2.19;100.00;102295.03;5073543;28;20224;-71
2022/01/14 07:28:42;;;;;;;6.83;5.60;;;;;;;2.18;100.00;102286.13;5073673;28;20441;-72
2022/01/14 07:31:07;;;;;;;13.27;7.03;;;;;;;2.19;100.00;102293.19;5073648;28;20186;-74
2022/01/14 07:33:32;;;;;;;7.87;4.97;;;;;;;2.21;100.00;102291.09;5072292;28;20190;-75
2022/01/14 07:35:58;;;;;;;2.30;2.13;;;;;;;2.21;100.00;102298.34;5073368;28;20187;-74
2022/01/14 07:38:23;;;;;;;4.07;3.70;;;;;;;2.24;100.00;102295.22;5072653;28;20175;-74
2022/01/14 07:40:48;;;;;;;6.93;6.23;;;;;;;2.25;100.00;102303.09;5072041;28;20213;-74
2022/01/14 07:43:14;;;;;;;7.07;3.43;;;;;;;2.27;100.00;102298.31;5072250;28;20308;-74
2022/01/14 07:45:39;;;;;;;3.53;3.23;;;;;;;2.28;100.00;102291.88;5073122;28;20541;-73
2022/01/14 07:48:05;;;;;;;5.47;3.13;;;;;;;2.28;100.00;102297.28;5073406;28;20664;-78
2022/01/14 07:50:30;;;;;;;8.07;6.80;;;;;;;2.28;100.00;102288.38;5073310;28;20539;-76
2022/01/14 07:52:55;;;;;;;4.23;3.43;;;;;;;2.30;100.00;102300.59;5073383;28;20179;-75
2022/01/14 07:55:21;;;;;;;12.33;5.87;;;;;;;2.30;100.00;102297.91;5073061;28;20181;-75
2022/01/14 07:57:47;;;;;;;5.87;4.73;;;;;;;2.29;100.00;102296.25;5073245;28;20174;-74
2022/01/14 08:00:13;;;;;;;9.30;7.63;;;;;;;2.28;100.00;102308.06;5073556;28;20175;-75
2022/01/14 08:02:38;;;;;;;4.23;3.87;;;;;;;2.30;100.00;102303.28;5071743;28;20968;-74
2022/01/14 08:05:04;;;;;;;5.33;4.93;;;;;;;2.32;100.00;102300.41;5071501;28;20198;-74
2022/01/14 08:07:33;;;;;;;5.00;4.53;;;;;;;2.31;100.00;102307.66;5072936;28;20265;-74
2022/01/14 08:09:58;;;;;;;15.00;8.00;;;;;;;2.32;100.00;102311.19;5072378;28;20420;-72
2022/01/14 08:12:23;;;;;;;3.83;3.53;;;;;;;2.33;100.00;102310.16;5072914;28;20470;-72
2022/01/14 08:14:49;;;;;;;9.83;4.73;;;;;;;2.35;100.00;102316.16;5071413;28;20514;-72
2022/01/14 08:17:18;;;;;;;5.93;5.20;;;;;;;2.34;100.00;102323.44;5072700;28;20179;-74
2022/01/14 08:19:43;;;;;;;10.00;3.30;;;;;;;2.35;100.00;102308.91;5072669;28;20175;-75
2022/01/14 08:22:08;;;;;;;8.37;5.07;;;;;;;2.37;100.00;102324.88;5072712;28;20525;-75
2022/01/14 08:24:35;;;;;;;4.00;3.70;;;;;;;2.41;100.00;102327.97;5070584;28;20213;-72
2022/01/14 08:27:01;;;;;;;5.10;4.47;;;;;;;2.42;100.00;102329.63;5081010;28;20197;-74
2022/01/14 08:29:30;;;;;;;7.53;3.90;;;;;;;2.44;100.00;102335.63;5080769;28;20895;-74
2022/01/14 08:31:55;;;;;;;32.23;6.03;;;;;;;2.45;100.00;102337.28;5071113;28;20619;-74
2022/01/14 08:34:21;;;;;;;8.03;6.23;;;;;;;2.49;100.00;102349.34;5072281;28;20423;-75
2022/01/14 08:36:48;;;;;;;19.23;10.10;;;;;;;2.50;100.00;102351.00;5072084;28;20177;-74
2022/01/14 08:39:14;;;;;;;13.57;5.73;;;;;;;2.53;100.00;102361.34;5072189;28;20625;-72
2022/01/14 08:41:39;;;;;;;9.53;7.00;;;;;;;2.55;100.00;102361.97;5070873;28;20925;-72
2022/01/14 08:44:06;;;;;;;38.00;5.70;;;;;;;2.57;100.00;102357.19;5070780;28;20518;-74
2022/01/14 08:46:31;;;;;;;7.43;6.67;;;;;;;2.58;100.00;102350.75;5071934;28;20178;-75
2022/01/14 08:48:59;;;;;;;4.27;3.87;;;;;;;2.62;100.00;102371.72;5070648;28;20436;-74
2022/01/14 08:51:27;;;;;;;24.90;10.20;;;;;;;2.62;100.00;102373.59;5072484;28;20186;-75
2022/01/14 08:53:53;;;;;;;9.90;6.10;;;;;;;2.62;100.00;102371.72;5072029;28;20463;-74
2022/01/14 08:56:19;;;;;;;6.13;4.93;;;;;;;2.63;100.00;102362.59;5071817;28;20304;-74
2022/01/14 08:58:44;;;;;;;4.23;2.43;;;;;;;2.66;100.00;102358.63;5071865;28;20503;-74
2022/01/14 09:01:10;;;;;;;4.50;4.10;;;;;;;2.65;100.00;102357.81;5070602;28;20184;-74
2022/01/14 09:03:35;;;;;;;5.43;3.50;;;;;;;2.65;100.00;102357.81;5072164;28;20225;-75
2022/01/14 09:06:00;;;;;;;7.93;4.87;;;;;;;2.66;100.00;102364.03;5069994;28;20174;-75
2022/01/14 09:08:26;;;;;;;4.97;4.10;;;;;;;2.67;100.00;102361.13;5070280;28;20300;-74
2022/01/14 09:10:51;;;;;;;4.53;3.73;;;;;;;2.71;100.00;102356.13;5071603;28;20209;-74
2022/01/14 09:13:17;;;;;;;5.07;4.57;;;;;;;2.74;100.00;102362.97;5071511;28;20202;-74
2022/01/14 09:15:43;;;;;;;6.40;3.67;;;;;;;2.77;100.00;102359.84;5071337;28;20178;-74
2022/01/14 09:18:08;;;;;;;12.70;5.60;;;;;;;2.79;100.00;102328.91;5070164;28;20639;-71
2022/01/14 09:20:34;;;;;;;6.57;5.93;;;;;;;2.80;100.00;102368.34;5071116;28;20595;-71
2022/01/14 09:22:59;;;;;;;3.83;3.53;;;;;;;2.81;100.00;102352.97;5072750;28;20356;-72
2022/01/14 09:25:25;;;;;;;11.27;6.00;;;;;;;2.82;100.00;102355.47;5073265;28;20202;-72
2022/01/14 09:27:52;;;;;;;4.50;4.13;;;;;;;2.83;100.00;102350.91;5081591;28;20174;-75
2022/01/14 09:30:22;;;;;;;3.53;3.33;;;;;;;2.84;100.00;102350.69;5075399;28;20202;-74
2022/01/14 09:32:48;;;;;;;8.70;6.73;;;;;;;2.85;100.00;102352.34;5071368;28;20409;-74
2022/01/14 09:35:14;;;;;;;17.17;11.47;;;;;;;2.88;100.00;102356.47;5070838;28;20672;-75
2022/01/14 09:37:45;;;;;;;7.03;6.53;;;;;;;2.89;100.00;102342.78;5069732;28;20225;-74
2022/01/14 09:40:13;;;;;;;6.83;3.70;;;;;;;2.92;100.00;102350.47;5070964;28;20174;-74
2022/01/14 09:42:38;;;;;;;6.53;5.20;;;;;;;2.93;100.00;102335.91;5070827;28;20175;-74
2022/01/14 09:45:04;;;;;;;2.83;2.73;;;;;;;2.93;100.00;102327.81;5069444;28;20534;-74
2022/01/14 09:47:30;;;;;;;8.13;5.93;;;;;;;2.99;100.00;102334.22;5069417;28;20178;-74
2022/01/14 09:49:55;;;;;;;6.83;5.77;;;;;;;2.98;100.00;102341.50;5070720;28;20236;-74
2022/01/14 09:52:20;;;;;;;9.20;5.43;;;;;;;3.02;100.00;102338.34;5070982;28;20614;-74
2022/01/14 09:54:48;;;;;;;13.67;6.13;;;;;;;3.05;100.00;102341.47;5070571;28;20635;-75
2022/01/14 09:57:16;;;;;;;13.67;7.63;;;;;;;3.07;100.00;102338.56;5070831;28;20174;-72
2022/01/14 09:59:41;;;;;;;5.17;4.63;;;;;;;3.09;100.00;102353.50;5070692;28;20181;-72
2022/01/14 10:02:07;;;;;;;8.17;6.17;;;;;;;3.08;100.00;102342.91;5070401;28;20257;-72
2022/01/14 10:04:32;;;;;;;11.43;4.93;;;;;;;3.08;100.00;102342.91;5067983;28;20246;-75
2022/01/14 10:07:00;;;;;;;7.07;6.23;;;;;;;3.09;100.00;102336.47;5068953;28;20182;-75
2022/01/14 10:09:34;;;;;;;13.13;3.27;;;;;;;3.10;100.00;102346.22;5069026;28;20583;-72
2022/01/14 10:12:01;;;;;;;7.83;5.33;;;;;;;3.13;100.00;102367.41;5070335;28;20175;-72
2022/01/14 10:14:27;;;;;;;10.30;6.77;;;;;;;3.09;100.00;102344.56;5070369;28;20205;-71
2022/01/14 10:16:55;;;;;;;4.10;3.80;;;;;;;3.09;100.00;102356.19;5069975;28;20274;-76
2022/01/14 10:19:25;;;;;;;8.20;6.17;;;;;;;3.08;100.00;102353.72;5068922;28;20460;-75
2022/01/14 10:21:52;;;;;;;11.53;7.30;;;;;;;3.09;100.00;102358.91;5069033;28;20181;-75
2022/01/14 10:24:18;;;;;;;6.40;4.73;;;;;;;3.05;100.00;102336.09;5070045;28;20217;-74
2022/01/14 10:26:58;;;;;;;6.83;5.43;;;;;;;3.03;100.00;102348.94;5069936;28;20296;-74
2022/01/14 10:29:38;;;;;;;10.67;7.97;;;;;;;3.05;100.00;102351.44;5070084;28;20166;-75
2022/01/14 10:32:06;;;;;;;10.40;5.60;;;;;;;3.08;100.00;102349.16;5070920;28;20162;-75
2022/01/14 10:34:33;;;;;;;3.23;3.00;;;;;;;3.08;100.00;102340.22;5074213;28;20170;-75
2022/01/14 10:37:09;;;;;;;11.57;10.03;;;;;;;3.09;100.00;102340.00;5072807;28;20540;-74
2022/01/14 10:39:41;;;;;;;2.37;2.27;;;;;;;3.13;100.00;102346.63;5072792;28;20981;-75
2022/01/14 10:42:22;;;;;;;6.10;2.70;;;;;;;3.15;100.00;102327.50;5072775;28;20457;-75
2022/01/14 10:44:48;;;;;;;10.57;6.13;;;;;;;3.16;100.00;102335.38;5073815;28;20567;-74
2022/01/14 10:47:14;;;;;;;3.17;2.97;;;;;;;3.18;100.00;102335.16;5074034;28;20497;-76
2022/01/14 10:49:42;;;;;;;11.93;4.97;;;;;;;3.17;100.00;102320.00;5072621;28;20261;-75
2022/01/14 10:52:18;;;;;;;4.53;4.23;;;;;;;3.20;100.00;102333.94;5072654;28;20425;-74
2022/01/14 10:54:49;;;;;;;6.73;6.07;;;;;;;3.19;100.00;102320.66;5073609;28;20416;-74
2022/01/14 10:57:21;;;;;;;8.60;5.37;;;;;;;3.23;100.00;102317.28;5074328;28;20175;-75
2022/01/14 10:59:49;;;;;;;19.70;5.73;;;;;;;3.26;100.00;102322.25;5073815;28;20928;-74
2022/01/14 11:02:38;;;;;;;7.93;6.80;;;;;;;3.27;100.00;102341.97;5073779;28;20448;-72
2022/01/14 11:05:25;;;;;;;14.87;8.03;;;;;;;3.28;100.00;102332.84;5072038;28;20209;-75
2022/01/14 11:07:52;;;;;;;5.93;4.90;;;;;;;3.27;100.00;102313.09;5073677;28;20171;-74
2022/01/14 11:10:25;;;;;;;26.93;9.00;;;;;;;3.31;100.00;102328.88;5073485;28;20224;-75
2022/01/14 11:12:53;;;;;;;15.03;6.37;;;;;;;3.31;100.00;102335.09;5073609;28;20249;-72
2022/01/14 11:15:19;;;;;;;9.40;7.23;;;;;;;3.35;100.00;102344.44;5071935;28;20174;-72
2022/01/14 11:17:50;;;;;;;5.20;4.70;;;;;;;3.38;100.00;102325.09;5073448;28;20177;-72
2022/01/14 11:20:22;;;;;;;5.33;4.23;;;;;;;3.39;100.00;102326.75;5073450;28;20167;-72
2022/01/14 11:25:31;;;;;;;6.77;6.10;;;;;;;3.43;100.00;102319.84;5073510;28;20282;-75
2022/01/14 11:27:59;;;;;;;15.37;7.47;;;;;;;3.45;100.00;102306.94;5071914;28;20223;-75
2022/01/14 11:30:33;;;;;;;10.50;6.57;;;;;;;3.42;100.00;102310.09;5071895;28;20174;-75
2022/01/14 11:33:03;;;;;;;10.13;5.20;;;;;;;3.42;100.00;102304.69;5073458;28;20209;-74
2022/01/14 11:35:30;;;;;;;8.43;5.13;;;;;;;3.46;100.00;102324.81;5073043;28;20174;-75
2022/01/14 11:37:55;;;;;;;5.60;4.70;;;;;;;3.48;100.00;102309.25;5071742;28;20583;-74
2022/01/14 11:40:21;;;;;;;3.87;3.53;;;;;;;3.50;100.00;102309.84;5071583;28;20656;-76
2022/01/14 11:42:46;;;;;;;5.03;4.63;;;;;;;3.51;100.00;102316.91;5071818;28;20175;-75
2022/01/14 11:45:17;;;;;;;5.03;4.53;;;;;;;3.53;100.00;102301.31;5071841;28;20230;-75
2022/01/14 11:47:44;;;;;;;8.70;4.50;;;;;;;3.54;100.00;102307.53;5072921;28;20658;-75
2022/01/14 11:50:19;;;;;;;4.93;3.80;;;;;;;3.58;100.00;102304.16;5071518;28;20186;-73